createdAt,value
2022-10-22T00:01:36.514Z,15.00
2022-10-22T00:04:03.830Z,13.82
2022-10-22T00:06:31.010Z,15.35
2022-10-22T00:08:58.281Z,15.95
2022-10-22T00:11:25.525Z,16.33
2022-10-22T00:13:55.839Z,14.45
2022-10-22T00:16:23.016Z,15.70
2022-10-22T00:18:53.453Z,17.52
2022-10-22T00:21:21.038Z,17.63
2022-10-22T00:23:51.888Z,16.00
2022-10-22T00:26:19.498Z,17.20
2022-10-22T00:28:47.054Z,14.25
2022-10-22T00:31:15.817Z,15.77
2022-10-22T00:33:43.206Z,15.00
2022-10-22T00:36:10.726Z,15.35
2022-10-22T00:38:37.996Z,15.73
2022-10-22T00:41:09.160Z,14.68
2022-10-22T00:43:54.530Z,15.23
2022-10-22T00:46:22.175Z,17.08
2022-10-22T00:48:50.025Z,15.77
2022-10-22T00:51:17.669Z,15.43
2022-10-22T00:53:49.434Z,14.27
2022-10-22T00:56:17.532Z,14.68
2022-10-22T00:58:49.674Z,16.30
2022-10-22T01:01:21.750Z,16.02
2022-10-22T01:03:50.246Z,14.25
2022-10-22T01:06:32.951Z,13.50
2022-10-22T01:09:32.396Z,14.57
2022-10-22T01:12:28.572Z,13.77
2022-10-22T01:15:37.199Z,12.73
2022-10-22T01:18:16.544Z,12.90
2022-10-22T01:20:52.720Z,12.35
2022-10-22T01:23:41.627Z,14.00
2022-10-22T01:26:14.869Z,12.43
2022-10-22T01:28:51.095Z,13.40
2022-10-22T01:31:21.847Z,13.02
2022-10-22T01:33:51.679Z,11.68
2022-10-22T01:36:22.292Z,12.50
2022-10-22T01:38:51.331Z,13.52
2022-10-22T01:41:19.395Z,13.30
2022-10-22T01:43:53.126Z,12.80
2022-10-22T01:46:25.443Z,13.82
2022-10-22T01:49:05.803Z,12.25
2022-10-22T01:52:08.841Z,11.07
2022-10-22T01:55:03.210Z,11.80
2022-10-22T01:57:43.351Z,12.77
2022-10-22T02:00:13.707Z,10.68
2022-10-22T02:02:52.154Z,11.68
2022-10-22T02:05:24.911Z,11.60
2022-10-22T02:08:15.625Z,12.13
2022-10-22T02:10:46.662Z,13.77
2022-10-22T02:13:31.484Z,12.70
2022-10-22T02:16:00.215Z,12.35
2022-10-22T02:18:35.295Z,11.43
2022-10-22T02:23:34.386Z,11.43
2022-10-22T02:26:15.379Z,12.55
2022-10-22T02:28:57.694Z,12.95
2022-10-22T02:31:30.592Z,10.88
2022-10-22T02:34:08.876Z,10.73
2022-10-22T02:36:38.245Z,10.63
2022-10-22T02:39:07.840Z,10.48
2022-10-22T02:41:36.630Z,10.68
2022-10-22T02:44:08.932Z,12.00
2022-10-22T02:46:37.149Z,11.43
2022-10-22T02:49:05.005Z,11.80
2022-10-22T02:51:32.073Z,12.25
2022-10-22T02:53:59.214Z,11.23
2022-10-22T02:56:26.402Z,12.77
2022-10-22T02:58:53.449Z,13.05
2022-10-22T03:01:20.643Z,13.20
2022-10-22T03:03:47.859Z,14.20
2022-10-22T03:06:15.052Z,14.52
2022-10-22T03:08:42.434Z,14.57
2022-10-22T03:11:09.776Z,16.20
2022-10-22T03:13:37.826Z,16.95
2022-10-22T03:16:05.246Z,14.93
2022-10-22T03:18:32.371Z,17.00
2022-10-22T03:21:34.140Z,17.70
2022-10-22T03:24:09.326Z,18.63
2022-10-22T03:26:37.827Z,17.88
2022-10-22T03:29:05.208Z,19.08
2022-10-22T03:31:32.291Z,18.65
2022-10-22T03:33:59.367Z,16.27
2022-10-22T03:36:26.685Z,18.38
2022-10-22T03:38:54.114Z,17.10
2022-10-22T03:41:21.655Z,17.10
2022-10-22T03:43:52.748Z,19.20
2022-10-22T03:46:20.508Z,17.38
2022-10-22T03:48:47.595Z,20.50
2022-10-22T03:51:14.844Z,16.92
2022-10-22T03:53:42.094Z,18.00
2022-10-22T03:56:11.036Z,20.02
2022-10-22T03:58:40.124Z,19.50
2022-10-22T04:01:10.269Z,16.83
2022-10-22T04:03:38.009Z,17.38
2022-10-22T04:06:08.315Z,19.42
2022-10-22T04:08:35.911Z,19.95
2022-10-22T04:11:03.211Z,17.73
2022-10-22T04:13:30.258Z,17.02
2022-10-22T04:16:17.891Z,16.63
2022-10-22T04:18:46.724Z,16.70
2022-10-22T04:21:17.094Z,16.17
2022-10-22T04:23:46.101Z,17.65
2022-10-22T04:26:13.396Z,15.32
2022-10-22T04:28:41.286Z,15.98
2022-10-22T04:31:10.528Z,15.02
2022-10-22T04:33:38.311Z,18.17
2022-10-22T04:36:14.861Z,18.30
2022-10-22T04:38:43.164Z,16.23
2022-10-22T04:41:11.355Z,16.13
2022-10-22T04:43:38.963Z,17.23
2022-10-22T04:46:06.710Z,17.58
2022-10-22T04:48:33.789Z,17.88
2022-10-22T04:51:00.918Z,21.30
2022-10-22T04:53:28.189Z,16.58
2022-10-22T04:55:55.750Z,17.75
2022-10-22T04:58:22.831Z,16.02
2022-10-22T05:00:49.951Z,17.27
2022-10-22T05:03:17.073Z,17.15
2022-10-22T05:05:44.223Z,18.55
2022-10-22T05:08:11.364Z,21.25
2022-10-22T05:10:38.484Z,24.08
2022-10-22T05:13:05.727Z,20.33
2022-10-22T05:15:34.138Z,18.77
2022-10-22T05:18:01.884Z,21.23
2022-10-22T05:20:29.008Z,19.45
2022-10-22T05:22:56.149Z,18.42
2022-10-22T05:25:23.211Z,21.50
2022-10-22T05:27:50.605Z,19.23
2022-10-22T05:30:17.841Z,18.33
2022-10-22T05:32:45.071Z,18.25
2022-10-22T05:35:12.187Z,16.23
2022-10-22T05:37:39.396Z,16.02
2022-10-22T05:40:19.115Z,19.50
2022-10-22T05:42:53.878Z,16.98
2022-10-22T05:45:20.912Z,16.30
2022-10-22T05:47:47.936Z,18.88
2022-10-22T05:50:15.058Z,18.20
2022-10-22T05:52:42.362Z,18.58
2022-10-22T05:55:09.664Z,15.98
2022-10-22T05:57:36.733Z,17.77
2022-10-22T06:00:04.399Z,16.75
2022-10-22T06:02:31.548Z,18.50
2022-10-22T06:04:58.700Z,16.55
2022-10-22T06:07:25.997Z,17.25
2022-10-22T06:09:53.875Z,17.58
2022-10-22T06:12:21.069Z,19.52
2022-10-22T06:14:48.227Z,16.60
2022-10-22T06:17:15.423Z,18.67
2022-10-22T06:19:42.573Z,19.17
2022-10-22T06:22:09.643Z,19.70
2022-10-22T06:24:38.565Z,18.33
2022-10-22T06:27:07.485Z,19.70
2022-10-22T06:29:34.677Z,19.88
2022-10-22T06:32:01.787Z,20.20
2022-10-22T06:34:28.862Z,18.33
2022-10-22T06:36:55.916Z,17.77
2022-10-22T06:39:23.045Z,22.73
2022-10-22T06:41:50.145Z,21.08
2022-10-22T06:44:20.027Z,17.88
2022-10-22T06:46:52.162Z,18.02
2022-10-22T06:49:20.534Z,18.67
2022-10-22T06:51:52.887Z,17.98
2022-10-22T06:54:21.256Z,17.45
2022-10-22T06:56:48.749Z,18.58
2022-10-22T06:59:15.905Z,18.55
2022-10-22T07:01:43.078Z,18.67
2022-10-22T07:04:10.824Z,18.73
2022-10-22T07:06:38.096Z,19.40
2022-10-22T07:09:05.282Z,15.77
2022-10-22T07:11:44.175Z,17.35
2022-10-22T07:14:12.549Z,16.63
2022-10-22T07:16:43.055Z,18.00
2022-10-22T07:19:10.191Z,17.77
2022-10-22T07:21:37.679Z,18.60
2022-10-22T07:24:05.080Z,17.35
2022-10-22T07:26:32.741Z,17.08
2022-10-22T07:29:00.820Z,17.40
2022-10-22T07:31:28.999Z,18.73
2022-10-22T07:33:56.456Z,19.60
2022-10-22T07:36:23.694Z,17.77
2022-10-22T07:38:56.152Z,18.60
2022-10-22T07:41:23.930Z,18.63
2022-10-22T07:43:51.243Z,17.85
2022-10-22T07:46:19.277Z,20.15
2022-10-22T07:48:46.599Z,16.90
2022-10-22T07:51:14.239Z,17.90
2022-10-22T07:53:41.386Z,17.05
2022-10-22T07:56:08.883Z,17.20
2022-10-22T07:58:36.408Z,18.10
2022-10-22T08:01:05.919Z,20.25
2022-10-22T08:03:33.330Z,20.92
2022-10-22T08:06:00.795Z,19.52
2022-10-22T08:08:30.780Z,18.00
2022-10-22T08:11:00.937Z,19.80
2022-10-22T08:13:30.523Z,19.08
2022-10-22T08:16:01.722Z,19.30
2022-10-22T08:18:29.352Z,18.27
2022-10-22T08:20:56.750Z,19.10
2022-10-22T08:23:27.491Z,17.10
2022-10-22T08:25:56.930Z,17.17
2022-10-22T08:28:24.419Z,18.85
2022-10-22T08:30:51.845Z,17.25
2022-10-22T08:33:19.073Z,17.70
2022-10-22T08:35:50.711Z,19.50
2022-10-22T08:38:18.650Z,17.60
2022-10-22T08:40:50.154Z,17.55
2022-10-22T08:43:58.817Z,17.38
2022-10-22T08:46:34.791Z,16.20
2022-10-22T08:49:05.341Z,14.52
2022-10-22T08:51:40.436Z,14.05
2022-10-22T08:54:18.622Z,15.73
2022-10-22T08:56:55.516Z,14.95
2022-10-22T08:59:53.865Z,13.43
2022-10-22T09:02:44.997Z,14.82
2022-10-22T09:05:25.843Z,14.55
2022-10-22T09:07:58.184Z,13.45
2022-10-22T09:10:41.178Z,13.73
2022-10-22T09:13:14.864Z,12.65
2022-10-22T09:15:47.334Z,12.55
2022-10-22T09:19:12.905Z,12.95
2022-10-22T09:24:44.176Z,11.90
2022-10-22T09:27:27.029Z,10.70
2022-10-22T09:29:54.315Z,10.85
2022-10-22T09:32:38.980Z,10.45
2022-10-22T09:35:12.170Z,12.13
2022-10-22T09:37:55.327Z,10.35
2022-10-22T09:40:26.227Z,10.10
2022-10-22T09:43:14.416Z,9.30
2022-10-22T09:45:49.372Z,9.05
2022-10-22T09:49:11.830Z,8.43
2022-10-22T09:51:42.706Z,7.95
2022-10-22T09:54:44.427Z,7.78
2022-10-22T09:57:18.734Z,7.35
2022-10-22T10:00:04.957Z,7.20
2022-10-22T10:02:44.520Z,7.10
2022-10-22T10:05:24.341Z,6.97
2022-10-22T10:07:54.920Z,6.85
2022-10-22T10:10:51.646Z,6.18
2022-10-22T10:13:57.392Z,5.85
2022-10-22T10:16:27.859Z,6.15
2022-10-22T10:19:16.963Z,6.10
2022-10-22T10:22:16.083Z,5.68
2022-10-22T10:25:26.730Z,4.75
2022-10-22T10:28:12.437Z,4.80
2022-10-22T10:30:51.971Z,4.55
2022-10-22T10:33:41.262Z,5.60
2022-10-22T10:36:37.957Z,5.28
2022-10-22T10:39:15.678Z,4.78
2022-10-22T10:41:59.766Z,4.28
2022-10-22T10:44:52.801Z,4.53
2022-10-22T10:47:28.817Z,4.40
2022-10-22T10:50:18.519Z,4.10
2022-10-22T10:53:02.405Z,4.22
2022-10-22T10:55:45.476Z,4.10
2022-10-22T10:58:35.423Z,4.18
2022-10-22T11:01:37.470Z,4.57
2022-10-22T11:04:08.074Z,3.78
2022-10-22T11:06:42.028Z,3.60
2022-10-22T11:09:21.736Z,5.22
2022-10-22T11:11:54.825Z,3.78
2022-10-22T11:14:36.541Z,4.63
2022-10-22T11:17:15.234Z,4.07
2022-10-22T11:19:59.934Z,4.20
2022-10-22T11:22:42.158Z,4.20
2022-10-22T11:25:21.275Z,4.50
2022-10-22T11:30:36.307Z,3.60
2022-10-22T11:33:07.165Z,4.40
2022-10-22T11:35:38.665Z,3.67
2022-10-22T11:38:07.566Z,3.35
2022-10-22T11:40:44.070Z,3.50
2022-10-22T11:43:25.685Z,3.05
2022-10-22T11:46:01.792Z,3.38
2022-10-22T11:48:36.725Z,4.15
2022-10-22T11:51:26.733Z,3.10
2022-10-22T11:53:58.155Z,3.40
2022-10-22T11:56:27.830Z,3.30
2022-10-22T11:58:55.593Z,3.10
2022-10-22T12:01:26.712Z,3.25
2022-10-22T12:04:19.109Z,2.78
2022-10-22T12:07:04.356Z,2.92
2022-10-22T12:09:32.910Z,3.10
2022-10-22T12:12:14.731Z,3.40
2022-10-22T12:15:00.969Z,2.97
2022-10-22T12:17:29.490Z,3.17
2022-10-22T12:20:07.297Z,2.92
2022-10-22T12:22:37.811Z,3.30
2022-10-22T12:25:22.334Z,3.50
2022-10-22T12:30:23.877Z,3.97
2022-10-22T12:33:07.751Z,5.63
2022-10-22T12:35:45.988Z,5.47
2022-10-22T12:38:15.935Z,5.60
2022-10-22T12:40:47.479Z,4.35
2022-10-22T12:43:23.883Z,3.60
2022-10-22T12:45:52.809Z,2.97
2022-10-22T12:48:37.054Z,3.53
2022-10-22T12:53:39.238Z,3.55
2022-10-22T12:56:11.651Z,3.30
2022-10-22T12:58:41.705Z,3.38
2022-10-22T13:01:12.702Z,3.15
2022-10-22T13:03:53.487Z,3.75
2022-10-22T13:06:20.625Z,3.63
2022-10-22T13:09:00.272Z,3.13
2022-10-22T13:11:38.905Z,2.90
2022-10-22T13:14:18.592Z,3.10
2022-10-22T13:17:11.529Z,2.80
2022-10-22T13:19:47.379Z,2.75
2022-10-22T13:22:26.576Z,2.78
2022-10-22T13:24:54.302Z,3.35
2022-10-22T13:27:23.362Z,3.50
2022-10-22T13:29:50.844Z,3.17
2022-10-22T13:32:30.681Z,2.80
2022-10-22T13:35:00.487Z,2.83
2022-10-22T13:37:30.162Z,2.40
2022-10-22T13:39:57.510Z,2.90
2022-10-22T13:42:24.998Z,2.60
2022-10-22T13:44:52.111Z,3.03
2022-10-22T13:47:32.340Z,3.28
2022-10-22T13:50:03.182Z,2.92
2022-10-22T13:52:44.472Z,2.90
2022-10-22T13:55:27.181Z,3.05
2022-10-22T14:00:58.388Z,2.70
2022-10-22T14:03:33.252Z,3.25
2022-10-22T14:06:00.568Z,3.08
2022-10-22T14:08:29.904Z,3.00
2022-10-22T14:11:04.487Z,3.33
2022-10-22T14:13:33.023Z,3.00
2022-10-22T14:16:06.118Z,3.10
2022-10-22T14:18:34.938Z,2.50
2022-10-22T14:21:10.059Z,3.17
2022-10-22T14:23:37.267Z,2.15
2022-10-22T14:26:04.747Z,2.92
2022-10-22T14:28:41.054Z,2.25
2022-10-22T14:31:13.487Z,2.90
2022-10-22T14:33:41.433Z,3.35
2022-10-22T14:36:13.590Z,2.75
2022-10-22T14:38:42.375Z,3.15
2022-10-22T14:41:22.873Z,2.50
2022-10-22T14:43:50.246Z,2.78
2022-10-22T14:46:18.533Z,2.85
2022-10-22T14:48:45.998Z,2.35
2022-10-22T14:51:21.377Z,2.38
2022-10-22T14:53:48.888Z,3.38
2022-10-22T14:56:18.914Z,3.38
2022-10-22T14:58:46.015Z,2.58
2022-10-22T15:01:13.321Z,3.05
2022-10-22T15:03:40.429Z,4.75
2022-10-22T15:06:07.702Z,8.00
2022-10-22T15:08:34.811Z,3.28
2022-10-22T15:11:12.363Z,3.35
2022-10-22T15:13:41.305Z,2.50
2022-10-22T15:16:10.419Z,3.60
2022-10-22T15:18:37.943Z,3.15
2022-10-22T15:21:11.854Z,3.13
2022-10-22T15:26:11.233Z,2.90
2022-10-22T15:28:40.114Z,2.90
2022-10-22T15:31:07.702Z,3.60
2022-10-22T15:33:34.743Z,3.08
2022-10-22T15:36:16.141Z,2.97
2022-10-22T15:38:43.242Z,2.65
2022-10-22T15:41:12.612Z,3.22
2022-10-22T15:43:39.653Z,3.17
2022-10-22T15:46:09.600Z,3.47
2022-10-22T15:48:36.709Z,2.95
2022-10-22T15:51:12.884Z,2.72
2022-10-22T15:53:40.479Z,3.08
2022-10-22T15:56:08.475Z,3.20
2022-10-22T15:58:35.676Z,3.38
2022-10-22T16:01:08.435Z,3.00
2022-10-22T16:03:35.855Z,2.90
2022-10-22T16:06:03.816Z,4.03
2022-10-22T16:08:31.107Z,3.78
2022-10-22T16:10:58.624Z,4.82
2022-10-22T16:13:26.638Z,5.10
2022-10-22T16:15:54.011Z,6.07
2022-10-22T16:18:21.720Z,7.75
2022-10-22T16:20:48.803Z,6.25
2022-10-22T16:23:18.753Z,5.28
2022-10-22T16:25:46.688Z,5.35
2022-10-22T16:28:14.155Z,4.47
2022-10-22T16:30:41.904Z,4.10
2022-10-22T16:33:10.476Z,3.40
2022-10-22T16:35:42.417Z,3.45
2022-10-22T16:38:11.153Z,3.88
2022-10-22T16:40:38.494Z,3.78
2022-10-22T16:43:06.273Z,3.80
2022-10-22T16:45:33.560Z,3.67
2022-10-22T16:48:00.736Z,3.78
2022-10-22T16:50:27.979Z,3.50
2022-10-22T16:52:55.282Z,3.60
2022-10-22T16:55:22.390Z,3.90
2022-10-22T16:57:51.685Z,4.00
2022-10-22T17:00:19.831Z,3.60
2022-10-22T17:02:53.015Z,3.80
2022-10-22T17:05:20.742Z,3.50
2022-10-22T17:07:48.050Z,3.28
2022-10-22T17:10:16.704Z,3.38
2022-10-22T17:12:43.955Z,3.30
2022-10-22T17:15:11.759Z,3.40
2022-10-22T17:17:39.333Z,3.47
2022-10-22T17:20:07.137Z,3.40
2022-10-22T17:22:34.412Z,2.92
2022-10-22T17:25:10.025Z,3.95
2022-10-22T17:27:37.504Z,3.50
2022-10-22T17:30:08.421Z,3.15
2022-10-22T17:32:39.327Z,3.45
2022-10-22T17:35:07.686Z,3.83
2022-10-22T17:37:42.557Z,3.15
2022-10-22T17:40:14.609Z,3.05
2022-10-22T17:42:42.807Z,3.22
2022-10-22T17:45:14.173Z,3.33
2022-10-22T17:47:42.350Z,2.53
2022-10-22T17:50:16.224Z,3.80
2022-10-22T17:52:45.555Z,4.82
2022-10-22T17:55:13.710Z,4.85
2022-10-22T17:57:40.977Z,3.50
2022-10-22T18:00:16.728Z,3.92
2022-10-22T18:02:46.303Z,3.88
2022-10-22T18:05:14.266Z,3.40
2022-10-22T18:07:47.386Z,3.20
2022-10-22T18:10:16.914Z,3.90
2022-10-22T18:12:46.512Z,4.55
2022-10-22T18:15:14.161Z,3.88
2022-10-22T18:17:41.923Z,4.65
2022-10-22T18:20:13.052Z,3.88
2022-10-22T18:22:42.164Z,4.63
2022-10-22T18:25:12.756Z,4.28
2022-10-22T18:27:40.715Z,4.82
2022-10-22T18:30:08.537Z,5.25
2022-10-22T18:32:35.839Z,4.70
2022-10-22T18:35:03.311Z,4.47
2022-10-22T18:37:31.954Z,4.15
2022-10-22T18:40:01.713Z,4.90
2022-10-22T18:42:31.909Z,4.85
2022-10-22T18:45:01.961Z,5.43
2022-10-22T18:47:29.181Z,5.20
2022-10-22T18:49:56.479Z,4.88
2022-10-22T18:52:23.716Z,4.63
2022-10-22T18:54:50.982Z,5.10
2022-10-22T18:57:20.344Z,5.20
2022-10-22T18:59:47.761Z,5.18
2022-10-22T19:02:17.217Z,5.53
2022-10-22T19:04:44.645Z,5.35
2022-10-22T19:07:12.848Z,6.63
2022-10-22T19:09:42.240Z,6.25
2022-10-22T19:12:09.692Z,6.32
2022-10-22T19:14:37.306Z,5.60
2022-10-22T19:17:07.724Z,5.00
2022-10-22T19:19:35.233Z,5.68
2022-10-22T19:22:02.660Z,6.65
2022-10-22T19:24:30.000Z,5.25
2022-10-22T19:27:00.262Z,5.38
2022-10-22T19:29:27.477Z,5.57
2022-10-22T19:31:54.822Z,5.03
2022-10-22T19:34:22.050Z,5.70
2022-10-22T19:36:51.904Z,5.47
2022-10-22T19:39:21.505Z,5.32
2022-10-22T19:41:51.083Z,5.25
2022-10-22T19:44:19.853Z,5.25
2022-10-22T19:46:47.073Z,5.78
2022-10-22T19:49:20.372Z,5.20
2022-10-22T19:51:52.756Z,5.60
2022-10-22T19:54:20.648Z,5.28
2022-10-22T19:56:48.431Z,5.47
2022-10-22T19:59:16.970Z,5.63
2022-10-22T20:01:44.154Z,4.75
2022-10-22T20:04:15.098Z,5.32
2022-10-22T20:06:43.519Z,5.70
2022-10-22T20:09:13.938Z,5.88
2022-10-22T20:11:41.467Z,5.45
2022-10-22T20:14:09.668Z,5.03
2022-10-22T20:16:39.600Z,5.13
2022-10-22T20:19:13.499Z,5.18
2022-10-22T20:21:43.430Z,5.97
2022-10-22T20:24:12.165Z,5.82
2022-10-22T20:26:39.364Z,8.38
2022-10-22T20:29:07.772Z,11.50
2022-10-22T20:31:37.348Z,10.20
2022-10-22T20:34:06.145Z,8.13
2022-10-22T20:36:33.396Z,6.40
2022-10-22T20:39:08.705Z,6.65
2022-10-22T20:41:40.565Z,6.32
2022-10-22T20:44:15.494Z,6.40
2022-10-22T20:46:43.788Z,5.35
2022-10-22T20:49:14.973Z,7.07
2022-10-22T20:51:42.733Z,5.68
2022-10-22T20:54:10.214Z,6.20
2022-10-22T20:56:39.353Z,6.20
2022-10-22T20:59:08.500Z,5.32
2022-10-22T21:01:38.394Z,5.95
2022-10-22T21:04:06.232Z,6.20
2022-10-22T21:06:34.287Z,5.90
2022-10-22T21:09:01.492Z,6.45
2022-10-22T21:11:28.689Z,5.80
2022-10-22T21:13:56.099Z,5.93
2022-10-22T21:16:23.318Z,5.80
2022-10-22T21:18:50.873Z,5.60
2022-10-22T21:21:19.218Z,6.25
2022-10-22T21:23:46.455Z,6.18
2022-10-22T21:26:13.801Z,6.18
2022-10-22T21:28:43.369Z,5.70
2022-10-22T21:31:15.433Z,6.70
2022-10-22T21:33:42.796Z,5.60
2022-10-22T21:36:10.160Z,6.40
2022-10-22T21:38:38.129Z,6.25
2022-10-22T21:41:26.481Z,6.68
2022-10-22T21:43:53.838Z,6.78
2022-10-22T21:46:26.441Z,6.97
2022-10-22T21:48:55.301Z,7.03
2022-10-22T21:51:25.979Z,7.50
2022-10-22T21:53:53.349Z,6.93
2022-10-22T21:56:25.810Z,6.97
2022-10-22T21:58:53.554Z,7.70
2022-10-22T22:01:27.365Z,7.30
2022-10-22T22:03:54.717Z,8.18
2022-10-22T22:06:26.279Z,7.10
2022-10-22T22:08:55.385Z,7.32
2022-10-22T22:11:25.835Z,8.52
2022-10-22T22:13:54.007Z,7.47
2022-10-22T22:16:28.720Z,8.35
2022-10-22T22:18:59.239Z,7.30
2022-10-22T22:21:27.305Z,7.00
2022-10-22T22:23:54.673Z,7.40
2022-10-22T22:26:28.333Z,8.07
2022-10-22T22:29:00.429Z,7.25
2022-10-22T22:31:31.826Z,7.68
2022-10-22T22:34:06.839Z,7.22
2022-10-22T22:36:40.005Z,7.85
2022-10-22T22:39:11.294Z,6.73
2022-10-22T22:41:38.553Z,7.93
2022-10-22T22:44:06.013Z,7.45
2022-10-22T22:46:33.302Z,7.97
2022-10-22T22:49:00.434Z,8.40
2022-10-22T22:51:27.692Z,7.75
2022-10-22T22:53:56.787Z,8.27
2022-10-22T22:56:29.153Z,8.00
2022-10-22T22:58:58.587Z,9.13
2022-10-22T23:01:29.034Z,9.30
2022-10-22T23:03:57.545Z,8.73
2022-10-22T23:06:26.425Z,9.73
2022-10-22T23:08:54.629Z,9.23
2022-10-22T23:11:23.821Z,9.43
2022-10-22T23:13:57.421Z,8.38
2022-10-22T23:16:27.433Z,9.63
2022-10-22T23:18:55.868Z,9.30
2022-10-22T23:21:28.586Z,10.15
2022-10-22T23:23:58.755Z,9.60
2022-10-22T23:26:32.414Z,9.68
2022-10-22T23:29:05.160Z,10.98
2022-10-22T23:31:35.038Z,9.75
2022-10-22T23:34:02.433Z,11.55
2022-10-22T23:36:29.726Z,11.43
2022-10-22T23:38:57.192Z,11.18
2022-10-22T23:41:26.955Z,11.23
2022-10-22T23:43:54.136Z,11.48
2022-10-22T23:46:21.220Z,10.77
2022-10-22T23:48:49.064Z,11.35
2022-10-22T23:51:17.331Z,11.20
2022-10-22T23:53:45.678Z,11.90
2022-10-22T23:56:15.816Z,10.57
2022-10-22T23:58:43.138Z,10.25
